TRA40K EHAM-LGMK
Flight info
| Callsign | TRA40K |
|---|---|
| Flight time | 2h 57m |
| Altitude | 37000 |
| Route | EDUPO Z739 MISGO DCT DIXAT DCT PODIP DCT TESGA DCT DINKU DCT BESNI DCT LATLO DCT OBEDI DCT BERTA DCT TEBLI/N0437F390 DCT TIVNU DCT MEDUX UM867 KOGAT DCT TALAS UM749 SKP UN137 AGAPU |
| Aircraft | B738/M-SDE2E3FGHIRWXY/LB1 |
Departure
| Time | 2026-04-28 15:00 |
|---|---|
| Airport | Amsterdam Airport Schiphol (EHAM) |
Arrival
| Time | 2026-04-28 17:58 |
|---|---|
| Airport | Mykonos Island National Airport (LGMK) |
| Time | Latitude | Longitude | Altitude | Speed | Heading |
|---|---|---|---|---|---|
| 2026-04-28 14:39 | 52.30545 | 4.76805 | -2 ft | 0 kts | 293° |
| 2026-04-28 14:45 | 52.30540 | 4.76824 | -2 ft | 4 kts | 295° |
| 2026-04-28 14:45 | 52.30531 | 4.76854 | -2 ft | 3 kts | 292° |
| 2026-04-28 14:45 | 52.30522 | 4.76890 | -2 ft | 4 kts | 292° |
| 2026-04-28 14:45 | 52.30517 | 4.76913 | -2 ft | 4 kts | 212° |
| 2026-04-28 14:46 | 52.30537 | 4.76916 | -2 ft | 4 kts | 172° |
| 2026-04-28 14:46 | 52.30561 | 4.76910 | -2 ft | 3 kts | 172° |
| 2026-04-28 14:46 | 52.30565 | 4.76909 | -2 ft | 1 kts | 172° |
| 2026-04-28 14:50 | 52.30564 | 4.76910 | -2 ft | 1 kts | 165° |
| 2026-04-28 14:50 | 52.30547 | 4.76927 | -2 ft | 4 kts | 148° |
| 2026-04-28 14:50 | 52.30529 | 4.76946 | -2 ft | 0 kts | 147° |
| 2026-04-28 14:51 | 52.30526 | 4.76949 | -2 ft | 3 kts | 147° |
| 2026-04-28 14:51 | 52.30491 | 4.77004 | -2 ft | 10 kts | 107° |
| 2026-04-28 14:51 | 52.30519 | 4.77106 | -2 ft | 10 kts | 57° |
| 2026-04-28 14:51 | 52.30556 | 4.77200 | -2 ft | 10 kts | 57° |
| 2026-04-28 14:52 | 52.30593 | 4.77294 | -2 ft | 10 kts | 58° |
| 2026-04-28 14:52 | 52.30628 | 4.77388 | -2 ft | 10 kts | 59° |
| 2026-04-28 14:52 | 52.30678 | 4.77452 | -2 ft | 9 kts | 13° |
| 2026-04-28 14:52 | 52.30742 | 4.77460 | -2 ft | 9 kts | 3° |
| 2026-04-28 14:53 | 52.30804 | 4.77466 | -2 ft | 9 kts | 3° |
| 2026-04-28 14:53 | 52.30865 | 4.77471 | -2 ft | 9 kts | 4° |
| 2026-04-28 14:53 | 52.30929 | 4.77478 | -2 ft | 10 kts | 4° |
| 2026-04-28 14:53 | 52.31011 | 4.77486 | -2 ft | 13 kts | 4° |
| 2026-04-28 14:54 | 52.31108 | 4.77495 | -2 ft | 15 kts | 2° |
| 2026-04-28 14:54 | 52.31175 | 4.77499 | -2 ft | 14 kts | 2° |
| 2026-04-28 14:54 | 52.31274 | 4.77497 | -2 ft | 14 kts | 348° |
| 2026-04-28 14:54 | 52.31347 | 4.77406 | -2 ft | 13 kts | 311° |
| 2026-04-28 14:55 | 52.31406 | 4.77295 | -2 ft | 13 kts | 311° |
| 2026-04-28 14:55 | 52.31463 | 4.77186 | -2 ft | 12 kts | 307° |
| 2026-04-28 14:55 | 52.31483 | 4.77049 | -2 ft | 14 kts | 266° |
| 2026-04-28 14:55 | 52.31477 | 4.76871 | -2 ft | 18 kts | 267° |
| 2026-04-28 14:56 | 52.31470 | 4.76657 | -2 ft | 19 kts | 266° |
| 2026-04-28 14:56 | 52.31462 | 4.76444 | -2 ft | 18 kts | 267° |
| 2026-04-28 14:56 | 52.31456 | 4.76239 | -2 ft | 18 kts | 266° |
| 2026-04-28 14:56 | 52.31448 | 4.76041 | -2 ft | 17 kts | 266° |
| 2026-04-28 14:57 | 52.31442 | 4.75849 | -2 ft | 17 kts | 267° |
| 2026-04-28 14:57 | 52.31435 | 4.75665 | -2 ft | 16 kts | 266° |
| 2026-04-28 14:57 | 52.31429 | 4.75488 | -2 ft | 15 kts | 266° |
| 2026-04-28 14:57 | 52.31421 | 4.75318 | -2 ft | 15 kts | 266° |
| 2026-04-28 14:58 | 52.31415 | 4.75156 | -2 ft | 14 kts | 267° |
| 2026-04-28 14:58 | 52.31411 | 4.75000 | -2 ft | 13 kts | 268° |
| 2026-04-28 14:58 | 52.31407 | 4.74851 | -2 ft | 13 kts | 267° |
| 2026-04-28 14:58 | 52.31410 | 4.74708 | -2 ft | 13 kts | 295° |
| 2026-04-28 14:59 | 52.31490 | 4.74670 | -2 ft | 13 kts | 357° |
| 2026-04-28 14:59 | 52.31576 | 4.74660 | -2 ft | 12 kts | 355° |
| 2026-04-28 14:59 | 52.31656 | 4.74694 | -1 ft | 12 kts | 40° |
| 2026-04-28 14:59 | 52.31670 | 4.74847 | -3 ft | 24 kts | 87° |
| 2026-04-28 15:00 | 52.31692 | 4.75492 | -5 ft | 88 kts | 86° |
| 2026-04-28 15:00 | 52.31736 | 4.76772 | 0 ft | 136 kts | 87° |
| 2026-04-28 15:00 | 52.31799 | 4.78409 | 358 ft | 148 kts | 81° |
| 2026-04-28 15:00 | 52.31887 | 4.80100 | 905 ft | 152 kts | 81° |
| 2026-04-28 15:01 | 52.31961 | 4.81866 | 1522 ft | 158 kts | 83° |
| 2026-04-28 15:01 | 52.32023 | 4.83692 | 2047 ft | 170 kts | 83° |
| 2026-04-28 15:01 | 52.32061 | 4.85758 | 2249 ft | 194 kts | 89° |
| 2026-04-28 15:01 | 52.31743 | 4.88028 | 2432 ft | 218 kts | 105° |
| 2026-04-28 15:02 | 52.31132 | 4.90424 | 2701 ft | 236 kts | 109° |
| 2026-04-28 15:02 | 52.30466 | 4.92906 | 3349 ft | 240 kts | 110° |
| 2026-04-28 15:02 | 52.29797 | 4.95407 | 4074 ft | 243 kts | 110° |
| 2026-04-28 15:02 | 52.29203 | 4.97981 | 4827 ft | 242 kts | 105° |
| 2026-04-28 15:03 | 52.28741 | 5.00614 | 5627 ft | 243 kts | 104° |
| 2026-04-28 15:03 | 52.28287 | 5.03320 | 6194 ft | 251 kts | 104° |
| 2026-04-28 15:03 | 52.27818 | 5.06106 | 6737 ft | 260 kts | 104° |
| 2026-04-28 15:03 | 52.27339 | 5.08911 | 7564 ft | 257 kts | 104° |
| 2026-04-28 15:04 | 52.26853 | 5.11727 | 8336 ft | 256 kts | 104° |
| 2026-04-28 15:04 | 52.26366 | 5.14548 | 8963 ft | 265 kts | 104° |
| 2026-04-28 15:04 | 52.25859 | 5.17457 | 9643 ft | 270 kts | 105° |
| 2026-04-28 15:04 | 52.25343 | 5.20403 | 10348 ft | 272 kts | 104° |
| 2026-04-28 15:05 | 52.24808 | 5.23441 | 10725 ft | 289 kts | 104° |
| 2026-04-28 15:05 | 52.24088 | 5.26615 | 11027 ft | 309 kts | 118° |
| 2026-04-28 15:05 | 52.22856 | 5.29604 | 11407 ft | 323 kts | 123° |
| 2026-04-28 15:05 | 52.21540 | 5.32541 | 12270 ft | 322 kts | 124° |
| 2026-04-28 15:06 | 52.20198 | 5.35535 | 12773 ft | 332 kts | 124° |
| 2026-04-28 15:06 | 52.18844 | 5.38541 | 13631 ft | 331 kts | 125° |
| 2026-04-28 15:06 | 52.17416 | 5.41510 | 14333 ft | 337 kts | 127° |
| 2026-04-28 15:06 | 52.15940 | 5.44504 | 15034 ft | 340 kts | 127° |
| 2026-04-28 15:07 | 52.14434 | 5.47546 | 15553 ft | 349 kts | 126° |
| 2026-04-28 15:07 | 52.12904 | 5.50643 | 16199 ft | 354 kts | 127° |
| 2026-04-28 15:07 | 52.11357 | 5.53780 | 16981 ft | 355 kts | 127° |
| 2026-04-28 15:07 | 52.09807 | 5.56933 | 17628 ft | 361 kts | 127° |
| 2026-04-28 15:08 | 52.08223 | 5.60157 | 18224 ft | 366 kts | 127° |
| 2026-04-28 15:08 | 52.06666 | 5.63324 | 19057 ft | 363 kts | 127° |
| 2026-04-28 15:08 | 52.05079 | 5.66554 | 19577 ft | 369 kts | 126° |
| 2026-04-28 15:08 | 52.03469 | 5.69827 | 20213 ft | 371 kts | 126° |
| 2026-04-28 15:09 | 52.01849 | 5.73119 | 20713 ft | 376 kts | 127° |
| 2026-04-28 15:09 | 52.00201 | 5.76465 | 21232 ft | 381 kts | 126° |
| 2026-04-28 15:09 | 51.98543 | 5.79827 | 21808 ft | 384 kts | 127° |
| 2026-04-28 15:09 | 51.97414 | 5.82112 | 22168 ft | 387 kts | 127° |
| 2026-04-28 15:10 | 51.95167 | 5.86652 | 22923 ft | 390 kts | 127° |
| 2026-04-28 15:10 | 51.93458 | 5.90101 | 23382 ft | 396 kts | 127° |
| 2026-04-28 15:10 | 51.91719 | 5.93605 | 23861 ft | 400 kts | 126° |
| 2026-04-28 15:10 | 51.89973 | 5.97118 | 24360 ft | 401 kts | 127° |
| 2026-04-28 15:11 | 51.88214 | 6.00656 | 24737 ft | 406 kts | 128° |
| 2026-04-28 15:11 | 51.86428 | 6.04242 | 25069 ft | 412 kts | 128° |
| 2026-04-28 15:11 | 51.84606 | 6.07841 | 25515 ft | 414 kts | 129° |
| 2026-04-28 15:11 | 51.82702 | 6.11339 | 25991 ft | 415 kts | 130° |
| 2026-04-28 15:12 | 51.80763 | 6.14811 | 26426 ft | 417 kts | 131° |
| 2026-04-28 15:12 | 51.78819 | 6.18316 | 26822 ft | 420 kts | 130° |
| 2026-04-28 15:12 | 51.76874 | 6.21854 | 27220 ft | 423 kts | 130° |
| 2026-04-28 15:12 | 51.74924 | 6.25414 | 27612 ft | 425 kts | 130° |
| 2026-04-28 15:13 | 51.72964 | 6.28995 | 27996 ft | 427 kts | 130° |
| 2026-04-28 15:13 | 51.70991 | 6.32598 | 28366 ft | 430 kts | 130° |
| 2026-04-28 15:13 | 51.68998 | 6.36234 | 28629 ft | 435 kts | 130° |
| 2026-04-28 15:13 | 51.66983 | 6.39902 | 28965 ft | 438 kts | 130° |
| 2026-04-28 15:14 | 51.64956 | 6.43583 | 29362 ft | 440 kts | 130° |
| 2026-04-28 15:14 | 51.62923 | 6.47267 | 29732 ft | 442 kts | 130° |
| 2026-04-28 15:14 | 51.60876 | 6.50974 | 30075 ft | 444 kts | 131° |
| 2026-04-28 15:14 | 51.58853 | 6.54633 | 30392 ft | 446 kts | 131° |
| 2026-04-28 15:15 | 51.56759 | 6.58412 | 30631 ft | 448 kts | 131° |
| 2026-04-28 15:15 | 51.54674 | 6.62171 | 30852 ft | 452 kts | 131° |
| 2026-04-28 15:15 | 51.52578 | 6.65945 | 31095 ft | 454 kts | 131° |
| 2026-04-28 15:15 | 51.50472 | 6.69732 | 31338 ft | 456 kts | 131° |
| 2026-04-28 15:16 | 51.48359 | 6.73528 | 31657 ft | 456 kts | 131° |
| 2026-04-28 15:16 | 51.46254 | 6.77306 | 31871 ft | 459 kts | 132° |
| 2026-04-28 15:16 | 51.44108 | 6.81152 | 31992 ft | 463 kts | 132° |
| 2026-04-28 15:16 | 51.41980 | 6.84956 | 32690 ft | 455 kts | 132° |
| 2026-04-28 15:17 | 51.39904 | 6.88708 | 32884 ft | 458 kts | 130° |
| 2026-04-28 15:17 | 51.37876 | 6.92669 | 33101 ft | 460 kts | 128° |
| 2026-04-28 15:17 | 51.35872 | 6.96756 | 33365 ft | 462 kts | 129° |
| 2026-04-28 15:17 | 51.33900 | 7.00805 | 33587 ft | 464 kts | 129° |
| 2026-04-28 15:18 | 51.31936 | 7.04805 | 33932 ft | 463 kts | 130° |
| 2026-04-28 15:18 | 51.29935 | 7.08836 | 34231 ft | 463 kts | 130° |
| 2026-04-28 15:18 | 51.27932 | 7.12844 | 34530 ft | 462 kts | 130° |
| 2026-04-28 15:18 | 51.25930 | 7.16854 | 34773 ft | 462 kts | 129° |
| 2026-04-28 15:19 | 51.23955 | 7.20907 | 34969 ft | 464 kts | 129° |
| 2026-04-28 15:19 | 51.21988 | 7.25000 | 35144 ft | 465 kts | 129° |
| 2026-04-28 15:19 | 51.20025 | 7.29098 | 35390 ft | 465 kts | 129° |
| 2026-04-28 15:19 | 51.18066 | 7.33181 | 35650 ft | 464 kts | 129° |
| 2026-04-28 15:20 | 51.16103 | 7.37255 | 35908 ft | 463 kts | 129° |
| 2026-04-28 15:20 | 51.14135 | 7.41325 | 36141 ft | 464 kts | 129° |
| 2026-04-28 15:20 | 51.12161 | 7.45394 | 36380 ft | 463 kts | 128° |
| 2026-04-28 15:20 | 51.10191 | 7.49444 | 36607 ft | 464 kts | 128° |
| 2026-04-28 15:21 | 51.08215 | 7.53500 | 36837 ft | 463 kts | 129° |
| 2026-04-28 15:21 | 51.06247 | 7.57533 | 37131 ft | 461 kts | 129° |
| 2026-04-28 15:21 | 51.04272 | 7.61577 | 37151 ft | 465 kts | 129° |
| 2026-04-28 15:22 | 51.00278 | 7.69732 | 37162 ft | 468 kts | 129° |
| 2026-04-28 15:22 | 50.96305 | 7.77826 | 37161 ft | 464 kts | 129° |
| 2026-04-28 15:23 | 50.92297 | 7.85463 | 37174 ft | 460 kts | 135° |
| 2026-04-28 15:23 | 50.87837 | 7.92657 | 37172 ft | 458 kts | 136° |
| 2026-04-28 15:24 | 50.83562 | 7.99423 | 37182 ft | 456 kts | 136° |
| 2026-04-28 15:24 | 50.79110 | 8.06557 | 37200 ft | 462 kts | 136° |
| 2026-04-28 15:25 | 50.74815 | 8.13483 | 37191 ft | 468 kts | 136° |
| 2026-04-28 15:25 | 50.70493 | 8.20448 | 37187 ft | 470 kts | 136° |
| 2026-04-28 15:26 | 50.66098 | 8.27508 | 37181 ft | 470 kts | 136° |
| 2026-04-28 15:26 | 50.61509 | 8.34855 | 37158 ft | 470 kts | 136° |
| 2026-04-28 15:27 | 50.56954 | 8.42125 | 37148 ft | 469 kts | 136° |
| 2026-04-28 15:27 | 50.52373 | 8.49415 | 37160 ft | 468 kts | 136° |
| 2026-04-28 15:28 | 50.47789 | 8.56693 | 37156 ft | 468 kts | 137° |
| 2026-04-28 15:28 | 50.43201 | 8.63927 | 37152 ft | 467 kts | 137° |
| 2026-04-28 15:29 | 50.38568 | 8.70943 | 37145 ft | 466 kts | 138° |
| 2026-04-28 15:29 | 50.33873 | 8.77950 | 37142 ft | 466 kts | 139° |
| 2026-04-28 15:30 | 50.29189 | 8.84945 | 37126 ft | 465 kts | 139° |
| 2026-04-28 15:30 | 50.24518 | 8.91929 | 37133 ft | 465 kts | 139° |
| 2026-04-28 15:31 | 50.19839 | 8.98914 | 37136 ft | 465 kts | 139° |
| 2026-04-28 15:31 | 50.15153 | 9.05888 | 37131 ft | 466 kts | 139° |
| 2026-04-28 15:32 | 50.10458 | 9.12857 | 37131 ft | 466 kts | 139° |
| 2026-04-28 15:32 | 50.05753 | 9.19818 | 37138 ft | 467 kts | 139° |
| 2026-04-28 15:33 | 50.01036 | 9.26774 | 37135 ft | 468 kts | 139° |
| 2026-04-28 15:33 | 49.96306 | 9.33734 | 37132 ft | 469 kts | 139° |
| 2026-04-28 15:34 | 49.91567 | 9.40689 | 37127 ft | 469 kts | 139° |
| 2026-04-28 15:34 | 49.86819 | 9.47636 | 37133 ft | 470 kts | 139° |
| 2026-04-28 15:35 | 49.82162 | 9.54431 | 37133 ft | 470 kts | 139° |
| 2026-04-28 15:35 | 49.75014 | 9.64822 | 37126 ft | 470 kts | 140° |
| 2026-04-28 15:36 | 49.70241 | 9.71737 | 37125 ft | 470 kts | 140° |
| 2026-04-28 15:36 | 49.65563 | 9.78494 | 37121 ft | 471 kts | 140° |
| 2026-04-28 15:37 | 49.60782 | 9.85382 | 37115 ft | 471 kts | 140° |
| 2026-04-28 15:37 | 49.56826 | 9.91065 | 37110 ft | 471 kts | 140° |
| 2026-04-28 15:38 | 49.51242 | 9.99066 | 37091 ft | 472 kts | 140° |
| 2026-04-28 15:38 | 49.46424 | 10.05948 | 37111 ft | 473 kts | 140° |
| 2026-04-28 15:39 | 49.41588 | 10.12836 | 37107 ft | 476 kts | 141° |
| 2026-04-28 15:39 | 49.36737 | 10.19727 | 37115 ft | 477 kts | 141° |
| 2026-04-28 15:40 | 49.31846 | 10.26658 | 37120 ft | 479 kts | 141° |
| 2026-04-28 15:40 | 49.26943 | 10.33587 | 37111 ft | 481 kts | 141° |
| 2026-04-28 15:41 | 49.22857 | 10.39354 | 37140 ft | 482 kts | 140° |
| 2026-04-28 15:41 | 49.18182 | 10.46247 | 37147 ft | 484 kts | 139° |
| 2026-04-28 15:42 | 49.13375 | 10.53467 | 37142 ft | 485 kts | 139° |
| 2026-04-28 15:42 | 49.08667 | 10.60490 | 37141 ft | 485 kts | 139° |
| 2026-04-28 15:43 | 49.04029 | 10.67358 | 37132 ft | 486 kts | 140° |
| 2026-04-28 15:43 | 48.99568 | 10.73935 | 37139 ft | 486 kts | 140° |
| 2026-04-28 15:44 | 48.94702 | 10.81086 | 37124 ft | 486 kts | 140° |
| 2026-04-28 15:44 | 48.90064 | 10.87888 | 37114 ft | 487 kts | 140° |
| 2026-04-28 15:45 | 48.85686 | 10.94292 | 37090 ft | 487 kts | 140° |
| 2026-04-28 15:45 | 48.80839 | 11.01361 | 37090 ft | 487 kts | 140° |
| 2026-04-28 15:46 | 48.75947 | 11.08477 | 37060 ft | 487 kts | 140° |
| 2026-04-28 15:46 | 48.71049 | 11.15582 | 37077 ft | 487 kts | 140° |
| 2026-04-28 15:47 | 48.66152 | 11.22669 | 37073 ft | 487 kts | 140° |
| 2026-04-28 15:47 | 48.61444 | 11.29849 | 37078 ft | 488 kts | 136° |
| 2026-04-28 15:48 | 48.56895 | 11.37481 | 37087 ft | 489 kts | 135° |
| 2026-04-28 15:48 | 48.52364 | 11.45142 | 37087 ft | 489 kts | 135° |
| 2026-04-28 15:49 | 48.47809 | 11.52735 | 37077 ft | 488 kts | 136° |
| 2026-04-28 15:49 | 48.43228 | 11.60293 | 37074 ft | 488 kts | 136° |
| 2026-04-28 15:50 | 48.38648 | 11.67817 | 37075 ft | 487 kts | 136° |
| 2026-04-28 15:50 | 48.34092 | 11.75282 | 37069 ft | 487 kts | 136° |
| 2026-04-28 15:51 | 48.29508 | 11.82776 | 37080 ft | 487 kts | 136° |
| 2026-04-28 15:51 | 48.24915 | 11.90264 | 37079 ft | 487 kts | 136° |
| 2026-04-28 15:52 | 48.20314 | 11.97742 | 37079 ft | 488 kts | 136° |
| 2026-04-28 15:52 | 48.15718 | 12.05191 | 37096 ft | 488 kts | 136° |
| 2026-04-28 15:53 | 48.11098 | 12.12660 | 37085 ft | 489 kts | 136° |
| 2026-04-28 15:53 | 48.06496 | 12.20078 | 37085 ft | 490 kts | 136° |
| 2026-04-28 15:54 | 48.01851 | 12.27543 | 37080 ft | 491 kts | 136° |
| 2026-04-28 15:54 | 47.97273 | 12.34881 | 37067 ft | 491 kts | 137° |
| 2026-04-28 15:55 | 47.92608 | 12.42335 | 37081 ft | 491 kts | 137° |
| 2026-04-28 15:55 | 47.87944 | 12.49766 | 37081 ft | 491 kts | 137° |
| 2026-04-28 15:56 | 47.83277 | 12.57186 | 37085 ft | 491 kts | 137° |
| 2026-04-28 15:56 | 47.78606 | 12.64590 | 37081 ft | 490 kts | 137° |
| 2026-04-28 15:57 | 47.73933 | 12.71978 | 37085 ft | 490 kts | 137° |
| 2026-04-28 15:57 | 47.69268 | 12.79333 | 37078 ft | 488 kts | 136° |
| 2026-04-28 15:58 | 47.64549 | 12.86536 | 37085 ft | 485 kts | 139° |
| 2026-04-28 15:58 | 47.59836 | 12.93431 | 37085 ft | 485 kts | 139° |
| 2026-04-28 15:59 | 47.55066 | 13.00404 | 37077 ft | 485 kts | 139° |
| 2026-04-28 15:59 | 47.50449 | 13.07185 | 37077 ft | 486 kts | 139° |
| 2026-04-28 16:00 | 47.45646 | 13.14237 | 37070 ft | 488 kts | 139° |
| 2026-04-28 16:00 | 47.41062 | 13.20948 | 37085 ft | 489 kts | 139° |
| 2026-04-28 16:01 | 47.36227 | 13.28008 | 37083 ft | 491 kts | 139° |
| 2026-04-28 16:01 | 47.31595 | 13.34765 | 37086 ft | 492 kts | 139° |
| 2026-04-28 16:02 | 47.26819 | 13.41933 | 37076 ft | 492 kts | 137° |
| 2026-04-28 16:02 | 47.22072 | 13.49136 | 37082 ft | 492 kts | 137° |
| 2026-04-28 16:03 | 47.17308 | 13.56315 | 37089 ft | 490 kts | 137° |
| 2026-04-28 16:03 | 47.12618 | 13.63333 | 37091 ft | 491 kts | 137° |
| 2026-04-28 16:04 | 47.07822 | 13.70485 | 37100 ft | 492 kts | 137° |
| 2026-04-28 16:04 | 47.03147 | 13.77439 | 37089 ft | 494 kts | 137° |
| 2026-04-28 16:05 | 46.98320 | 13.84605 | 37090 ft | 494 kts | 137° |
| 2026-04-28 16:05 | 46.93604 | 13.91589 | 37088 ft | 493 kts | 137° |
| 2026-04-28 16:06 | 46.88772 | 13.98725 | 37079 ft | 494 kts | 137° |
| 2026-04-28 16:06 | 46.84034 | 14.05703 | 37071 ft | 494 kts | 137° |
| 2026-04-28 16:07 | 46.79196 | 14.12811 | 37066 ft | 493 kts | 138° |
| 2026-04-28 16:08 | 46.71962 | 14.23399 | 37067 ft | 489 kts | 138° |
| 2026-04-28 16:08 | 46.67166 | 14.30396 | 37069 ft | 486 kts | 138° |
| 2026-04-28 16:09 | 46.60067 | 14.40718 | 37068 ft | 481 kts | 138° |
| 2026-04-28 16:10 | 46.53084 | 14.50835 | 37072 ft | 479 kts | 138° |
| 2026-04-28 16:10 | 46.46136 | 14.60860 | 37078 ft | 480 kts | 138° |
| 2026-04-28 16:11 | 46.37411 | 14.75196 | 37074 ft | 485 kts | 132° |
| 2026-04-28 16:12 | 46.30894 | 14.86435 | 37069 ft | 487 kts | 133° |
| 2026-04-28 16:13 | 46.24372 | 14.97468 | 37074 ft | 487 kts | 133° |
| 2026-04-28 16:14 | 46.15542 | 15.12289 | 37080 ft | 486 kts | 133° |
| 2026-04-28 16:15 | 46.06814 | 15.26875 | 37084 ft | 484 kts | 133° |
| 2026-04-28 16:15 | 46.02421 | 15.34187 | 37078 ft | 484 kts | 133° |
| 2026-04-28 16:16 | 45.95807 | 15.45158 | 37079 ft | 484 kts | 133° |
| 2026-04-28 16:17 | 45.89177 | 15.56112 | 37052 ft | 484 kts | 133° |
| 2026-04-28 16:17 | 45.84752 | 15.63400 | 37069 ft | 484 kts | 133° |
| 2026-04-28 16:18 | 45.80324 | 15.70675 | 37077 ft | 484 kts | 133° |
| 2026-04-28 16:18 | 45.75903 | 15.77918 | 37090 ft | 483 kts | 133° |
| 2026-04-28 16:19 | 45.71477 | 15.85151 | 37078 ft | 483 kts | 133° |
| 2026-04-28 16:19 | 45.67117 | 15.92257 | 37086 ft | 484 kts | 134° |
| 2026-04-28 16:20 | 45.62749 | 15.99357 | 37084 ft | 484 kts | 134° |
| 2026-04-28 16:20 | 45.58310 | 16.06555 | 37082 ft | 484 kts | 134° |
| 2026-04-28 16:21 | 45.53927 | 16.13644 | 37077 ft | 484 kts | 134° |
| 2026-04-28 16:21 | 45.49602 | 16.20619 | 37078 ft | 484 kts | 134° |
| 2026-04-28 16:22 | 45.45194 | 16.27712 | 37072 ft | 484 kts | 134° |
| 2026-04-28 16:22 | 45.40724 | 16.34888 | 37077 ft | 485 kts | 134° |
| 2026-04-28 16:23 | 45.36245 | 16.42058 | 37068 ft | 484 kts | 134° |
| 2026-04-28 16:23 | 45.31925 | 16.48957 | 37072 ft | 484 kts | 134° |
| 2026-04-28 16:24 | 45.27439 | 16.56103 | 37072 ft | 484 kts | 134° |
| 2026-04-28 16:24 | 45.22959 | 16.63224 | 37056 ft | 483 kts | 134° |
| 2026-04-28 16:25 | 45.18489 | 16.70333 | 37069 ft | 483 kts | 133° |
| 2026-04-28 16:25 | 45.14143 | 16.77390 | 37064 ft | 483 kts | 133° |
| 2026-04-28 16:26 | 45.10044 | 16.84061 | 37064 ft | 483 kts | 133° |
| 2026-04-28 16:26 | 45.05841 | 16.90861 | 37061 ft | 483 kts | 133° |
| 2026-04-28 16:27 | 45.01413 | 16.97999 | 37058 ft | 482 kts | 133° |
| 2026-04-28 16:28 | 44.94705 | 17.08597 | 37059 ft | 481 kts | 136° |
| 2026-04-28 16:28 | 44.89978 | 17.15271 | 37082 ft | 481 kts | 138° |
| 2026-04-28 16:29 | 44.83620 | 17.24052 | 37065 ft | 481 kts | 137° |
| 2026-04-28 16:30 | 44.76823 | 17.33522 | 37081 ft | 481 kts | 137° |
| 2026-04-28 16:30 | 44.72225 | 17.39945 | 37064 ft | 481 kts | 137° |
| 2026-04-28 16:31 | 44.67599 | 17.46393 | 37064 ft | 481 kts | 137° |
| 2026-04-28 16:31 | 44.62839 | 17.53008 | 37049 ft | 482 kts | 137° |
| 2026-04-28 16:32 | 44.58226 | 17.59402 | 37042 ft | 482 kts | 137° |
| 2026-04-28 16:32 | 44.51566 | 17.68608 | 37045 ft | 482 kts | 137° |
| 2026-04-28 16:33 | 44.48182 | 17.73274 | 37049 ft | 482 kts | 137° |
| 2026-04-28 16:33 | 44.43002 | 17.80399 | 37040 ft | 482 kts | 137° |
| 2026-04-28 16:34 | 44.38301 | 17.86850 | 37045 ft | 481 kts | 137° |
| 2026-04-28 16:34 | 44.33577 | 17.93317 | 37015 ft | 480 kts | 137° |
| 2026-04-28 16:35 | 44.29242 | 17.99237 | 37021 ft | 479 kts | 137° |
| 2026-04-28 16:35 | 44.25585 | 18.04223 | 37022 ft | 478 kts | 137° |
| 2026-04-28 16:36 | 44.21743 | 18.09451 | 37023 ft | 477 kts | 137° |
| 2026-04-28 16:36 | 44.17005 | 18.15885 | 37027 ft | 476 kts | 137° |
| 2026-04-28 16:37 | 44.12281 | 18.22281 | 37009 ft | 477 kts | 138° |
| 2026-04-28 16:38 | 44.05126 | 18.31939 | 37025 ft | 478 kts | 137° |
| 2026-04-28 16:38 | 44.00340 | 18.38385 | 37027 ft | 480 kts | 137° |
| 2026-04-28 16:39 | 43.95561 | 18.44805 | 37029 ft | 480 kts | 137° |
| 2026-04-28 16:39 | 43.90757 | 18.51242 | 37021 ft | 480 kts | 137° |
| 2026-04-28 16:40 | 43.85946 | 18.57674 | 37015 ft | 481 kts | 138° |
| 2026-04-28 16:40 | 43.81131 | 18.64096 | 37013 ft | 480 kts | 137° |
| 2026-04-28 16:41 | 43.76436 | 18.70343 | 37006 ft | 480 kts | 137° |
| 2026-04-28 16:41 | 43.71623 | 18.76733 | 37024 ft | 479 kts | 138° |
| 2026-04-28 16:42 | 43.67561 | 18.82113 | 37023 ft | 478 kts | 138° |
| 2026-04-28 16:42 | 43.63883 | 18.86977 | 37019 ft | 479 kts | 138° |
| 2026-04-28 16:43 | 43.60291 | 18.91718 | 37027 ft | 479 kts | 138° |
| 2026-04-28 16:43 | 43.56626 | 18.96548 | 37016 ft | 479 kts | 138° |
| 2026-04-28 16:44 | 43.52959 | 19.01371 | 37011 ft | 479 kts | 138° |
| 2026-04-28 16:44 | 43.49340 | 19.06123 | 37018 ft | 478 kts | 138° |
| 2026-04-28 16:45 | 43.45674 | 19.10927 | 37017 ft | 478 kts | 138° |
| 2026-04-28 16:45 | 43.42070 | 19.15641 | 37031 ft | 478 kts | 138° |
| 2026-04-28 16:46 | 43.38455 | 19.20363 | 37022 ft | 477 kts | 138° |
| 2026-04-28 16:46 | 43.34581 | 19.25414 | 37016 ft | 477 kts | 138° |
| 2026-04-28 16:47 | 43.30317 | 19.30962 | 37025 ft | 477 kts | 138° |
| 2026-04-28 16:47 | 43.25551 | 19.37150 | 37020 ft | 477 kts | 138° |
| 2026-04-28 16:48 | 43.21644 | 19.42212 | 37015 ft | 477 kts | 138° |
| 2026-04-28 16:48 | 43.18012 | 19.46910 | 37032 ft | 476 kts | 138° |
| 2026-04-28 16:49 | 43.14366 | 19.51618 | 37021 ft | 476 kts | 138° |
| 2026-04-28 16:49 | 43.10721 | 19.56316 | 37023 ft | 476 kts | 138° |
| 2026-04-28 16:50 | 43.07003 | 19.61103 | 37025 ft | 475 kts | 138° |
| 2026-04-28 16:50 | 43.02890 | 19.66385 | 37027 ft | 475 kts | 138° |
| 2026-04-28 16:51 | 42.98225 | 19.72364 | 37020 ft | 474 kts | 138° |
| 2026-04-28 16:51 | 42.94335 | 19.77340 | 37023 ft | 474 kts | 138° |
| 2026-04-28 16:52 | 42.90382 | 19.82387 | 37037 ft | 474 kts | 138° |
| 2026-04-28 16:52 | 42.85879 | 19.88127 | 37032 ft | 473 kts | 138° |
| 2026-04-28 16:53 | 42.81066 | 19.94249 | 37048 ft | 474 kts | 138° |
| 2026-04-28 16:53 | 42.76270 | 20.00336 | 37048 ft | 475 kts | 138° |
| 2026-04-28 16:54 | 42.71748 | 20.06893 | 37056 ft | 476 kts | 130° |
| 2026-04-28 16:54 | 42.67587 | 20.13906 | 37056 ft | 477 kts | 129° |
| 2026-04-28 16:55 | 42.63429 | 20.20926 | 37048 ft | 477 kts | 129° |
| 2026-04-28 16:55 | 42.59223 | 20.27898 | 37049 ft | 478 kts | 130° |
| 2026-04-28 16:56 | 42.54986 | 20.34849 | 37046 ft | 478 kts | 130° |
| 2026-04-28 16:56 | 42.50746 | 20.41784 | 37038 ft | 478 kts | 130° |
| 2026-04-28 16:57 | 42.46501 | 20.48714 | 37043 ft | 478 kts | 130° |
| 2026-04-28 16:57 | 42.42260 | 20.55625 | 37045 ft | 477 kts | 130° |
| 2026-04-28 16:58 | 42.38017 | 20.62523 | 37050 ft | 477 kts | 130° |
| 2026-04-28 16:58 | 42.33773 | 20.69407 | 37055 ft | 477 kts | 130° |
| 2026-04-28 16:59 | 42.29525 | 20.76282 | 37042 ft | 476 kts | 130° |
| 2026-04-28 16:59 | 42.25279 | 20.83136 | 37066 ft | 476 kts | 130° |
| 2026-04-28 17:00 | 42.21796 | 20.88747 | 37062 ft | 476 kts | 130° |
| 2026-04-28 17:00 | 42.16864 | 20.96679 | 37057 ft | 475 kts | 130° |
| 2026-04-28 17:01 | 42.12951 | 21.02942 | 37043 ft | 475 kts | 132° |
| 2026-04-28 17:01 | 42.08028 | 21.08586 | 37053 ft | 469 kts | 150° |
| 2026-04-28 17:02 | 42.02550 | 21.13126 | 37033 ft | 469 kts | 150° |
| 2026-04-28 17:02 | 41.96977 | 21.17720 | 37035 ft | 471 kts | 150° |
| 2026-04-28 17:03 | 41.90503 | 21.23131 | 37041 ft | 471 kts | 150° |
| 2026-04-28 17:03 | 41.86348 | 21.26622 | 37029 ft | 472 kts | 150° |
| 2026-04-28 17:04 | 41.79452 | 21.32408 | 37014 ft | 472 kts | 150° |
| 2026-04-28 17:05 | 41.71186 | 21.39321 | 37041 ft | 472 kts | 150° |
| 2026-04-28 17:06 | 41.62968 | 21.46168 | 37039 ft | 467 kts | 150° |
| 2026-04-28 17:06 | 41.55165 | 21.52651 | 37013 ft | 469 kts | 150° |
| 2026-04-28 17:07 | 41.51100 | 21.56021 | 37037 ft | 470 kts | 150° |
| 2026-04-28 17:07 | 41.46930 | 21.59474 | 37046 ft | 470 kts | 150° |
| 2026-04-28 17:08 | 41.42718 | 21.62955 | 37034 ft | 471 kts | 150° |
| 2026-04-28 17:08 | 41.37306 | 21.67421 | 37038 ft | 472 kts | 150° |
| 2026-04-28 17:09 | 41.31751 | 21.71996 | 37019 ft | 473 kts | 150° |
| 2026-04-28 17:09 | 41.26221 | 21.76541 | 37035 ft | 474 kts | 150° |
| 2026-04-28 17:10 | 41.20593 | 21.81157 | 37049 ft | 476 kts | 150° |
| 2026-04-28 17:10 | 41.14964 | 21.85765 | 37041 ft | 475 kts | 150° |
| 2026-04-28 17:11 | 41.09338 | 21.90362 | 37045 ft | 474 kts | 150° |
| 2026-04-28 17:11 | 41.03825 | 21.95117 | 37051 ft | 473 kts | 147° |
| 2026-04-28 17:12 | 40.98460 | 22.00132 | 37059 ft | 470 kts | 146° |
| 2026-04-28 17:12 | 40.93127 | 22.05131 | 37055 ft | 469 kts | 146° |
| 2026-04-28 17:13 | 40.87782 | 22.10079 | 37066 ft | 469 kts | 147° |
| 2026-04-28 17:13 | 40.82431 | 22.14992 | 37052 ft | 468 kts | 147° |
| 2026-04-28 17:14 | 40.77079 | 22.19896 | 37067 ft | 468 kts | 147° |
| 2026-04-28 17:14 | 40.71723 | 22.24795 | 37063 ft | 469 kts | 147° |
| 2026-04-28 17:15 | 40.66364 | 22.29687 | 37065 ft | 469 kts | 147° |
| 2026-04-28 17:15 | 40.60986 | 22.34587 | 37068 ft | 470 kts | 147° |
| 2026-04-28 17:16 | 40.55631 | 22.39457 | 37064 ft | 471 kts | 147° |
| 2026-04-28 17:16 | 40.50229 | 22.44361 | 37072 ft | 473 kts | 147° |
| 2026-04-28 17:17 | 40.45695 | 22.48469 | 37070 ft | 473 kts | 147° |
| 2026-04-28 17:17 | 40.40272 | 22.53374 | 37074 ft | 474 kts | 147° |
| 2026-04-28 17:18 | 40.34841 | 22.58278 | 37069 ft | 474 kts | 147° |
| 2026-04-28 17:18 | 40.29414 | 22.63168 | 37077 ft | 473 kts | 147° |
| 2026-04-28 17:19 | 40.23990 | 22.68054 | 37081 ft | 473 kts | 147° |
| 2026-04-28 17:19 | 40.18566 | 22.72931 | 37078 ft | 473 kts | 147° |
| 2026-04-28 17:20 | 40.13178 | 22.77768 | 37078 ft | 473 kts | 147° |
| 2026-04-28 17:20 | 40.07722 | 22.82657 | 37069 ft | 472 kts | 147° |
| 2026-04-28 17:21 | 40.02347 | 22.87462 | 37075 ft | 471 kts | 147° |
| 2026-04-28 17:22 | 39.94236 | 22.94696 | 37077 ft | 471 kts | 147° |
| 2026-04-28 17:22 | 39.88830 | 22.99506 | 37077 ft | 470 kts | 147° |
| 2026-04-28 17:23 | 39.80735 | 23.06693 | 37071 ft | 469 kts | 147° |
| 2026-04-28 17:23 | 39.75338 | 23.11469 | 37093 ft | 469 kts | 147° |
| 2026-04-28 17:24 | 39.69945 | 23.16235 | 37086 ft | 469 kts | 147° |
| 2026-04-28 17:24 | 39.64547 | 23.20997 | 37089 ft | 469 kts | 147° |
| 2026-04-28 17:25 | 39.56445 | 23.28126 | 37082 ft | 469 kts | 147° |
| 2026-04-28 17:26 | 39.51036 | 23.32875 | 37094 ft | 470 kts | 147° |
| 2026-04-28 17:26 | 39.45625 | 23.37616 | 37088 ft | 470 kts | 147° |
| 2026-04-28 17:27 | 39.40211 | 23.42351 | 37093 ft | 470 kts | 147° |
| 2026-04-28 17:27 | 39.34792 | 23.47081 | 37084 ft | 470 kts | 147° |
| 2026-04-28 17:28 | 39.29377 | 23.51799 | 37074 ft | 470 kts | 147° |
| 2026-04-28 17:28 | 39.24084 | 23.56404 | 37025 ft | 449 kts | 147° |
| 2026-04-28 17:28 | 39.21525 | 23.58629 | 36939 ft | 437 kts | 147° |
| 2026-04-28 17:29 | 39.19039 | 23.60786 | 36931 ft | 426 kts | 147° |
| 2026-04-28 17:29 | 39.16582 | 23.62947 | 36674 ft | 430 kts | 145° |
| 2026-04-28 17:29 | 39.14126 | 23.65231 | 36311 ft | 445 kts | 144° |
| 2026-04-28 17:30 | 39.08995 | 23.70146 | 35486 ft | 465 kts | 143° |
| 2026-04-28 17:30 | 39.03843 | 23.75074 | 34657 ft | 457 kts | 143° |
| 2026-04-28 17:30 | 39.01297 | 23.77491 | 34244 ft | 454 kts | 143° |
| 2026-04-28 17:31 | 38.98766 | 23.79884 | 33791 ft | 450 kts | 143° |
| 2026-04-28 17:31 | 38.93752 | 23.84608 | 32927 ft | 443 kts | 143° |
| 2026-04-28 17:32 | 38.88830 | 23.89235 | 32123 ft | 435 kts | 143° |
| 2026-04-28 17:32 | 38.86400 | 23.91517 | 31729 ft | 431 kts | 143° |
| 2026-04-28 17:32 | 38.83989 | 23.93780 | 31341 ft | 427 kts | 143° |
| 2026-04-28 17:32 | 38.81597 | 23.96023 | 30959 ft | 424 kts | 143° |
| 2026-04-28 17:33 | 38.79223 | 23.98245 | 30577 ft | 421 kts | 143° |
| 2026-04-28 17:33 | 38.76867 | 24.00451 | 30201 ft | 418 kts | 143° |
| 2026-04-28 17:33 | 38.74527 | 24.02638 | 29751 ft | 415 kts | 143° |
| 2026-04-28 17:33 | 38.72986 | 24.04079 | 29488 ft | 412 kts | 143° |
| 2026-04-28 17:34 | 38.69906 | 24.06954 | 28966 ft | 407 kts | 143° |
| 2026-04-28 17:34 | 38.67631 | 24.09077 | 28553 ft | 403 kts | 143° |
| 2026-04-28 17:34 | 38.65374 | 24.11180 | 28172 ft | 400 kts | 143° |
| 2026-04-28 17:34 | 38.63132 | 24.13269 | 27764 ft | 397 kts | 143° |
| 2026-04-28 17:35 | 38.60913 | 24.15333 | 27398 ft | 393 kts | 143° |
| 2026-04-28 17:35 | 38.58713 | 24.17381 | 27014 ft | 390 kts | 143° |
| 2026-04-28 17:35 | 38.56529 | 24.19410 | 26636 ft | 387 kts | 143° |
| 2026-04-28 17:35 | 38.54356 | 24.21429 | 26264 ft | 385 kts | 143° |
| 2026-04-28 17:36 | 38.52195 | 24.23434 | 25886 ft | 382 kts | 143° |
| 2026-04-28 17:36 | 38.50051 | 24.25423 | 25521 ft | 380 kts | 143° |
| 2026-04-28 17:36 | 38.47917 | 24.27401 | 25157 ft | 378 kts | 143° |
| 2026-04-28 17:36 | 38.45790 | 24.29370 | 24788 ft | 377 kts | 143° |
| 2026-04-28 17:37 | 38.43673 | 24.31328 | 24421 ft | 375 kts | 143° |
| 2026-04-28 17:37 | 38.41544 | 24.33234 | 24101 ft | 372 kts | 146° |
| 2026-04-28 17:37 | 38.39369 | 24.34957 | 23889 ft | 366 kts | 148° |
| 2026-04-28 17:37 | 38.37210 | 24.36580 | 23541 ft | 364 kts | 149° |
| 2026-04-28 17:38 | 38.35024 | 24.38197 | 23155 ft | 362 kts | 149° |
| 2026-04-28 17:38 | 38.32851 | 24.39804 | 22786 ft | 360 kts | 148° |
| 2026-04-28 17:38 | 38.30690 | 24.41411 | 22413 ft | 358 kts | 148° |
| 2026-04-28 17:38 | 38.28547 | 24.43012 | 22048 ft | 356 kts | 148° |
| 2026-04-28 17:39 | 38.26418 | 24.44609 | 21688 ft | 354 kts | 148° |
| 2026-04-28 17:39 | 38.24300 | 24.46199 | 21329 ft | 352 kts | 148° |
| 2026-04-28 17:39 | 38.20099 | 24.49357 | 20625 ft | 349 kts | 148° |
| 2026-04-28 17:40 | 38.18013 | 24.50926 | 20271 ft | 348 kts | 148° |
| 2026-04-28 17:40 | 38.15937 | 24.52486 | 19920 ft | 346 kts | 148° |
| 2026-04-28 17:40 | 38.13865 | 24.54043 | 19573 ft | 345 kts | 148° |
| 2026-04-28 17:40 | 38.11799 | 24.55595 | 19228 ft | 345 kts | 148° |
| 2026-04-28 17:41 | 38.09737 | 24.57141 | 18862 ft | 344 kts | 148° |
| 2026-04-28 17:41 | 38.07683 | 24.58681 | 18513 ft | 343 kts | 148° |
| 2026-04-28 17:41 | 38.05626 | 24.60222 | 18120 ft | 343 kts | 148° |
| 2026-04-28 17:41 | 38.03578 | 24.61755 | 17739 ft | 341 kts | 148° |
| 2026-04-28 17:42 | 38.01536 | 24.63282 | 17374 ft | 340 kts | 148° |
| 2026-04-28 17:42 | 38.00188 | 24.64290 | 17129 ft | 339 kts | 148° |
| 2026-04-28 17:42 | 37.97485 | 24.66310 | 16668 ft | 336 kts | 148° |
| 2026-04-28 17:42 | 37.95476 | 24.67810 | 16318 ft | 334 kts | 148° |
| 2026-04-28 17:43 | 37.93477 | 24.69301 | 15979 ft | 333 kts | 148° |
| 2026-04-28 17:43 | 37.91487 | 24.70785 | 15632 ft | 331 kts | 148° |
| 2026-04-28 17:43 | 37.89503 | 24.72265 | 15292 ft | 330 kts | 149° |
| 2026-04-28 17:43 | 37.87529 | 24.73735 | 14957 ft | 329 kts | 149° |
| 2026-04-28 17:44 | 37.85565 | 24.75198 | 14613 ft | 327 kts | 149° |
| 2026-04-28 17:44 | 37.83604 | 24.76657 | 14272 ft | 326 kts | 149° |
| 2026-04-28 17:44 | 37.81651 | 24.78110 | 13934 ft | 325 kts | 149° |
| 2026-04-28 17:44 | 37.79702 | 24.79557 | 13557 ft | 325 kts | 149° |
| 2026-04-28 17:45 | 37.77757 | 24.81001 | 13193 ft | 323 kts | 148° |
| 2026-04-28 17:45 | 37.75822 | 24.82436 | 12843 ft | 322 kts | 148° |
| 2026-04-28 17:45 | 37.73898 | 24.83863 | 12500 ft | 319 kts | 148° |
| 2026-04-28 17:45 | 37.71987 | 24.85279 | 12167 ft | 317 kts | 148° |
| 2026-04-28 17:46 | 37.70089 | 24.86686 | 11834 ft | 315 kts | 148° |
| 2026-04-28 17:46 | 37.68203 | 24.88082 | 11504 ft | 314 kts | 148° |
| 2026-04-28 17:46 | 37.66351 | 24.89452 | 11175 ft | 312 kts | 148° |
| 2026-04-28 17:46 | 37.64483 | 24.90833 | 10847 ft | 311 kts | 148° |
| 2026-04-28 17:47 | 37.62595 | 24.92229 | 10519 ft | 309 kts | 148° |
| 2026-04-28 17:47 | 37.60767 | 24.93579 | 10270 ft | 305 kts | 148° |
| 2026-04-28 17:47 | 37.58937 | 24.94929 | 10129 ft | 297 kts | 148° |
| 2026-04-28 17:47 | 37.57764 | 24.95794 | 10003 ft | 293 kts | 148° |
| 2026-04-28 17:48 | 37.55438 | 24.97511 | 9590 ft | 292 kts | 148° |
| 2026-04-28 17:48 | 37.53689 | 24.98801 | 9289 ft | 290 kts | 148° |
| 2026-04-28 17:48 | 37.51952 | 25.00082 | 9005 ft | 288 kts | 148° |
| 2026-04-28 17:48 | 37.50224 | 25.01353 | 8708 ft | 287 kts | 148° |
| 2026-04-28 17:49 | 37.48505 | 25.02618 | 8418 ft | 286 kts | 148° |
| 2026-04-28 17:49 | 37.46878 | 25.04022 | 8120 ft | 282 kts | 136° |
| 2026-04-28 17:49 | 37.45479 | 25.05738 | 7853 ft | 280 kts | 131° |
| 2026-04-28 17:49 | 37.44144 | 25.07507 | 7571 ft | 278 kts | 131° |
| 2026-04-28 17:50 | 37.42816 | 25.09270 | 7293 ft | 277 kts | 131° |
| 2026-04-28 17:50 | 37.41486 | 25.11016 | 7012 ft | 276 kts | 131° |
| 2026-04-28 17:50 | 37.40154 | 25.12745 | 6721 ft | 275 kts | 131° |
| 2026-04-28 17:50 | 37.38819 | 25.14466 | 6442 ft | 274 kts | 131° |
| 2026-04-28 17:51 | 37.37483 | 25.16177 | 6146 ft | 274 kts | 131° |
| 2026-04-28 17:51 | 37.36147 | 25.17884 | 5819 ft | 275 kts | 131° |
| 2026-04-28 17:51 | 37.34807 | 25.19591 | 5528 ft | 273 kts | 131° |
| 2026-04-28 17:51 | 37.33473 | 25.21286 | 5243 ft | 272 kts | 131° |
| 2026-04-28 17:52 | 37.32146 | 25.22973 | 4970 ft | 271 kts | 131° |
| 2026-04-28 17:52 | 37.30824 | 25.24650 | 4698 ft | 269 kts | 131° |
| 2026-04-28 17:52 | 37.28199 | 25.27979 | 4154 ft | 266 kts | 131° |
| 2026-04-28 17:53 | 37.26919 | 25.29600 | 4041 ft | 258 kts | 130° |
| 2026-04-28 17:53 | 37.25896 | 25.31353 | 3900 ft | 241 kts | 104° |
| 2026-04-28 17:53 | 37.25700 | 25.33359 | 3858 ft | 230 kts | 81° |
| 2026-04-28 17:53 | 37.26042 | 25.35281 | 3750 ft | 223 kts | 65° |
| 2026-04-28 17:54 | 37.26573 | 25.37119 | 3470 ft | 227 kts | 65° |
| 2026-04-28 17:54 | 37.27152 | 25.38914 | 3351 ft | 216 kts | 53° |
| 2026-04-28 17:54 | 37.28260 | 25.39992 | 3266 ft | 198 kts | 14° |
| 2026-04-28 17:54 | 37.29616 | 25.40129 | 3068 ft | 196 kts | 2° |
| 2026-04-28 17:55 | 37.30968 | 25.40139 | 2824 ft | 193 kts | 354° |
| 2026-04-28 17:55 | 37.32252 | 25.39725 | 2594 ft | 188 kts | 346° |
| 2026-04-28 17:55 | 37.33474 | 25.39242 | 2350 ft | 179 kts | 345° |
| 2026-04-28 17:55 | 37.34608 | 25.38759 | 2113 ft | 165 kts | 345° |
| 2026-04-28 17:56 | 37.35651 | 25.38302 | 1897 ft | 153 kts | 345° |
| 2026-04-28 17:56 | 37.36616 | 25.37877 | 1744 ft | 138 kts | 344° |
| 2026-04-28 17:56 | 37.37488 | 25.37491 | 1507 ft | 126 kts | 344° |
| 2026-04-28 17:56 | 37.38302 | 25.37132 | 1372 ft | 124 kts | 344° |
| 2026-04-28 17:57 | 37.39111 | 25.36774 | 1199 ft | 123 kts | 342° |
| 2026-04-28 17:57 | 37.39920 | 25.36395 | 1048 ft | 128 kts | 340° |
| 2026-04-28 17:57 | 37.40785 | 25.36021 | 908 ft | 134 kts | 343° |
| 2026-04-28 17:57 | 37.41688 | 25.35630 | 732 ft | 141 kts | 340° |
| 2026-04-28 17:58 | 37.42604 | 25.35225 | 472 ft | 137 kts | 339° |
| 2026-04-28 17:58 | 37.43469 | 25.34842 | 410 ft | 115 kts | 341° |
| 2026-04-28 17:58 | 37.43999 | 25.34610 | 409 ft | 29 kts | 341° |
| 2026-04-28 17:58 | 37.44193 | 25.34520 | 406 ft | 20 kts | 340° |
| 2026-04-28 17:59 | 37.44257 | 25.34479 | 403 ft | 8 kts | 295° |
| 2026-04-28 17:59 | 37.44295 | 25.34450 | 400 ft | 8 kts | 38° |
| 2026-04-28 17:59 | 37.44285 | 25.34487 | 401 ft | 5 kts | 162° |
| 2026-04-28 17:59 | 37.44246 | 25.34493 | 403 ft | 9 kts | 158° |
| 2026-04-28 18:00 | 37.44164 | 25.34534 | 406 ft | 16 kts | 160° |
| 2026-04-28 18:00 | 37.44035 | 25.34592 | 408 ft | 23 kts | 160° |
| 2026-04-28 18:00 | 37.43866 | 25.34666 | 411 ft | 29 kts | 161° |
| 2026-04-28 18:00 | 37.43695 | 25.34729 | 410 ft | 20 kts | 189° |
| 2026-04-28 18:01 | 37.43607 | 25.34676 | 407 ft | 13 kts | 190° |
| 2026-04-28 18:01 | 37.43520 | 25.34705 | 405 ft | 14 kts | 160° |
| 2026-04-28 18:01 | 37.43472 | 25.34691 | 404 ft | 6 kts | 246° |
| 2026-04-28 18:01 | 37.43464 | 25.34663 | 406 ft | 2 kts | 251° |
| 2026-04-28 18:02 | 37.43464 | 25.34661 | 406 ft | 0 kts | 251° |